createdAt,value
2023-01-17T00:02:35.276Z,37.13
2023-01-17T00:05:59.031Z,42.72
2023-01-17T00:09:19.849Z,40.70
2023-01-17T00:12:24.505Z,40.92
2023-01-17T00:15:28.415Z,41.00
2023-01-17T00:18:30.848Z,41.15
2023-01-17T00:21:52.075Z,39.60
2023-01-17T00:25:12.906Z,42.80
2023-01-17T00:28:15.544Z,38.90
2023-01-17T00:31:18.712Z,39.17
2023-01-17T00:34:21.272Z,37.22
2023-01-17T00:37:23.647Z,37.50
2023-01-17T00:40:26.179Z,37.20
2023-01-17T00:43:48.613Z,39.67
2023-01-17T00:47:09.540Z,38.40
2023-01-17T00:50:30.207Z,34.22
2023-01-17T00:53:50.967Z,35.73
2023-01-17T00:57:12.797Z,35.20
2023-01-17T01:00:35.842Z,38.15
2023-01-17T01:03:57.471Z,33.83
2023-01-17T01:07:18.524Z,35.00
2023-01-17T01:10:39.645Z,33.30
2023-01-17T01:14:00.822Z,33.80
2023-01-17T01:17:21.738Z,30.65
2023-01-17T01:20:45.312Z,34.47
2023-01-17T01:24:06.560Z,32.70
2023-01-17T01:27:27.368Z,33.85
2023-01-17T01:30:48.451Z,30.70
2023-01-17T01:33:52.246Z,30.17
2023-01-17T01:36:54.858Z,30.45
2023-01-17T01:39:57.381Z,29.45
2023-01-17T01:43:05.715Z,30.75
2023-01-17T01:46:11.431Z,33.70
2023-01-17T01:49:26.164Z,36.53
2023-01-17T01:52:31.651Z,31.83
2023-01-17T01:55:38.783Z,33.58
2023-01-17T01:58:45.832Z,33.80
2023-01-17T02:01:51.726Z,34.87
2023-01-17T02:04:55.100Z,38.25
2023-01-17T02:08:03.588Z,34.85
2023-01-17T02:11:07.242Z,34.97
2023-01-17T02:14:19.117Z,36.17
2023-01-17T02:17:36.478Z,33.70
2023-01-17T02:20:50.884Z,31.17
2023-01-17T02:24:11.771Z,31.23
2023-01-17T02:27:46.629Z,32.53
2023-01-17T02:30:54.616Z,31.60
2023-01-17T02:34:10.853Z,29.52
2023-01-17T02:37:22.918Z,28.35
2023-01-17T02:40:35.261Z,31.30
2023-01-17T02:43:39.539Z,32.70
2023-01-17T02:46:49.076Z,28.10
2023-01-17T02:50:01.600Z,30.77
2023-01-17T02:53:06.798Z,33.20
2023-01-17T02:56:11.921Z,28.77
2023-01-17T02:59:20.993Z,32.35
2023-01-17T03:02:43.832Z,30.02
2023-01-17T03:05:51.932Z,29.47
2023-01-17T03:08:54.854Z,32.42
2023-01-17T03:11:58.995Z,27.27
2023-01-17T03:15:01.552Z,30.73
2023-01-17T03:18:08.348Z,27.63
2023-01-17T03:21:11.207Z,29.38
2023-01-17T03:24:13.691Z,26.08
2023-01-17T03:27:16.389Z,25.23
2023-01-17T03:30:20.452Z,28.57
2023-01-17T03:33:23.520Z,25.98
2023-01-17T03:36:26.008Z,26.13
2023-01-17T03:39:29.006Z,29.80
2023-01-17T03:42:31.428Z,27.63
2023-01-17T03:45:33.904Z,27.33
2023-01-17T03:48:36.312Z,26.23
2023-01-17T03:51:38.962Z,23.77
2023-01-17T03:54:41.417Z,26.30
2023-01-17T03:57:45.231Z,26.55
2023-01-17T04:00:47.814Z,23.85
2023-01-17T04:03:50.447Z,23.55
2023-01-17T04:06:52.984Z,24.03
2023-01-17T04:09:55.455Z,23.80
2023-01-17T04:12:57.983Z,23.80
2023-01-17T04:16:00.440Z,24.15
2023-01-17T04:19:02.970Z,22.67
2023-01-17T04:22:05.491Z,24.23
2023-01-17T04:25:08.417Z,23.83
2023-01-17T04:28:11.222Z,23.80
2023-01-17T04:31:16.710Z,24.42
2023-01-17T04:34:19.209Z,25.87
2023-01-17T04:37:22.684Z,23.07
2023-01-17T04:40:25.863Z,26.17
2023-01-17T04:43:28.336Z,22.25
2023-01-17T04:46:31.004Z,24.92
2023-01-17T04:49:33.556Z,23.90
2023-01-17T04:52:36.296Z,22.83
2023-01-17T04:55:38.814Z,21.45
2023-01-17T04:58:41.746Z,21.70
2023-01-17T05:01:44.625Z,19.83
2023-01-17T05:04:47.120Z,19.77
2023-01-17T05:07:59.026Z,21.58
2023-01-17T05:11:02.581Z,19.92
2023-01-17T05:14:05.279Z,21.88
2023-01-17T05:17:07.935Z,19.97
2023-01-17T05:20:11.761Z,20.08
2023-01-17T05:23:14.268Z,24.05
2023-01-17T05:26:17.058Z,20.88
2023-01-17T05:29:20.239Z,14.23
2023-01-17T05:32:22.765Z,17.60
2023-01-17T05:35:28.693Z,16.65
2023-01-17T05:38:31.191Z,17.38
2023-01-17T05:41:33.993Z,17.73
2023-01-17T05:44:36.512Z,18.43
2023-01-17T05:47:39.008Z,13.95
2023-01-17T05:50:41.504Z,19.33
2023-01-17T05:53:43.898Z,15.15
2023-01-17T05:56:46.797Z,11.73
2023-01-17T05:59:49.156Z,15.00
2023-01-17T06:02:56.150Z,11.68
2023-01-17T06:05:58.867Z,11.35
2023-01-17T06:09:01.836Z,11.93
2023-01-17T06:12:04.847Z,13.25
2023-01-17T06:15:08.065Z,8.65
2023-01-17T06:18:13.660Z,11.55
2023-01-17T06:21:16.259Z,9.90
2023-01-17T06:24:18.719Z,11.43
2023-01-17T06:27:21.608Z,11.43
2023-01-17T06:30:24.229Z,11.93
2023-01-17T06:33:27.098Z,8.07
2023-01-17T06:36:30.290Z,9.65
2023-01-17T06:39:33.131Z,8.05
2023-01-17T06:42:35.604Z,9.83
2023-01-17T06:45:38.236Z,8.47
2023-01-17T06:48:43.887Z,9.25
2023-01-17T06:51:46.644Z,4.72
2023-01-17T06:54:49.253Z,8.00
2023-01-17T06:57:51.974Z,7.60
2023-01-17T07:00:54.667Z,7.72
2023-01-17T07:03:57.623Z,7.53
2023-01-17T07:07:01.342Z,5.40
2023-01-17T07:10:05.096Z,8.27
2023-01-17T07:13:07.679Z,6.32
2023-01-17T07:16:10.139Z,5.95
2023-01-17T07:19:13.105Z,5.37
2023-01-17T07:22:15.952Z,5.22
2023-01-17T07:25:20.172Z,4.10
2023-01-17T07:28:24.108Z,3.65
2023-01-17T07:31:26.686Z,3.53
2023-01-17T07:34:29.370Z,3.50
2023-01-17T07:37:32.006Z,3.83
2023-01-17T07:40:41.827Z,3.90
2023-01-17T07:43:44.558Z,2.83
2023-01-17T07:46:47.166Z,2.83
2023-01-17T07:49:49.717Z,3.85
2023-01-17T07:52:52.459Z,3.55
2023-01-17T07:55:55.298Z,3.50
2023-01-17T07:58:57.777Z,3.23
2023-01-17T08:02:00.403Z,1.45
2023-01-17T08:05:03.045Z,1.85
2023-01-17T08:08:08.843Z,1.67
2023-01-17T08:11:11.383Z,1.70
2023-01-17T08:14:13.930Z,2.13
2023-01-17T08:17:17.138Z,1.65
2023-01-17T08:20:20.400Z,2.53
2023-01-17T08:23:23.314Z,2.00
2023-01-17T08:26:25.818Z,1.77
2023-01-17T08:29:29.776Z,1.80
2023-01-17T08:32:32.359Z,1.17
2023-01-17T08:35:36.229Z,1.93
2023-01-17T08:38:39.094Z,0.68
2023-01-17T08:41:41.745Z,1.58
2023-01-17T08:44:44.250Z,1.00
2023-01-17T08:47:46.737Z,2.47
2023-01-17T08:50:49.856Z,0.93
2023-01-17T08:53:53.669Z,0.80
2023-01-17T08:56:56.151Z,1.03
2023-01-17T08:59:59.393Z,1.95
2023-01-17T09:03:01.960Z,0.50
2023-01-17T09:06:13.307Z,1.33
2023-01-17T09:09:17.278Z,1.47
2023-01-17T09:12:22.312Z,0.67
2023-01-17T09:15:25.106Z,0.40
2023-01-17T09:18:28.652Z,0.90
2023-01-17T09:21:31.284Z,1.60
2023-01-17T09:24:33.823Z,1.03
2023-01-17T09:27:36.262Z,0.88
2023-01-17T09:30:38.878Z,1.08
2023-01-17T09:33:42.778Z,0.70
2023-01-17T09:36:45.353Z,0.77
2023-01-17T09:39:49.806Z,1.75
2023-01-17T09:43:01.550Z,0.95
2023-01-17T09:46:06.142Z,0.83
2023-01-17T09:49:15.148Z,1.20
2023-01-17T09:52:21.245Z,0.80
2023-01-17T09:55:23.804Z,1.10
2023-01-17T09:58:34.845Z,0.80
2023-01-17T10:02:00.118Z,0.80
2023-01-17T10:05:02.689Z,1.23
2023-01-17T10:08:34.520Z,1.10
2023-01-17T10:12:09.911Z,1.55
2023-01-17T10:15:24.625Z,1.27
2023-01-17T10:19:00.753Z,1.27
2023-01-17T10:22:31.189Z,2.07
2023-01-17T10:25:56.403Z,1.05
2023-01-17T10:29:02.915Z,1.63
2023-01-17T10:32:05.885Z,2.38
2023-01-17T10:35:20.053Z,2.53
2023-01-17T10:38:32.809Z,1.77
2023-01-17T10:41:45.624Z,1.23
2023-01-17T10:44:57.764Z,1.60
2023-01-17T10:48:39.538Z,1.42
2023-01-17T10:51:43.110Z,1.43
2023-01-17T10:54:51.626Z,2.33
2023-01-17T10:57:54.568Z,3.60
2023-01-17T11:01:22.156Z,1.40
2023-01-17T11:04:42.218Z,1.17
2023-01-17T11:08:03.863Z,2.30
2023-01-17T11:11:06.335Z,1.40
2023-01-17T11:14:22.341Z,1.80
2023-01-17T11:17:27.647Z,2.30
2023-01-17T11:20:36.475Z,2.88
2023-01-17T11:23:42.221Z,1.60
2023-01-17T11:26:49.442Z,2.50
2023-01-17T11:30:21.936Z,2.55
2023-01-17T11:33:34.031Z,1.48
2023-01-17T11:36:36.738Z,1.60
2023-01-17T11:39:39.272Z,1.40
2023-01-17T11:42:41.867Z,1.17
2023-01-17T11:45:45.518Z,2.47
2023-01-17T11:48:52.459Z,1.40
2023-01-17T11:51:57.932Z,1.25
2023-01-17T11:55:00.763Z,1.20
2023-01-17T11:58:03.432Z,1.20
2023-01-17T12:01:23.995Z,1.35
2023-01-17T12:04:42.742Z,1.67
2023-01-17T12:08:12.392Z,1.35
2023-01-17T12:11:35.950Z,1.97
2023-01-17T12:14:50.609Z,1.80
2023-01-17T12:18:11.523Z,1.30
2023-01-17T12:21:22.734Z,1.23
2023-01-17T12:24:49.999Z,1.95
2023-01-17T12:28:04.407Z,1.30
2023-01-17T12:31:40.138Z,4.10
2023-01-17T12:34:53.563Z,5.47
2023-01-17T12:38:08.969Z,4.10
2023-01-17T12:41:24.409Z,2.45
2023-01-17T12:44:33.756Z,4.67
2023-01-17T12:47:42.881Z,1.40
2023-01-17T12:50:59.193Z,1.05
2023-01-17T12:54:25.574Z,1.63
2023-01-17T12:57:40.822Z,0.80
2023-01-17T13:00:48.755Z,3.33
2023-01-17T13:04:16.372Z,2.03
2023-01-17T13:07:42.087Z,3.13
2023-01-17T13:10:51.963Z,2.33
2023-01-17T13:13:57.948Z,1.55
2023-01-17T13:17:19.177Z,3.43
2023-01-17T13:20:37.729Z,2.40
2023-01-17T13:24:07.654Z,2.08
2023-01-17T13:27:09.987Z,3.67
2023-01-17T13:30:24.392Z,7.22
2023-01-17T13:33:40.984Z,4.60
2023-01-17T13:37:13.211Z,4.63
2023-01-17T13:40:29.702Z,5.32
2023-01-17T13:43:39.434Z,7.97
2023-01-17T13:46:53.742Z,5.25
2023-01-17T13:49:59.360Z,7.80
2023-01-17T13:53:27.323Z,7.07
2023-01-17T13:56:32.426Z,5.33
2023-01-17T13:59:35.957Z,5.22
2023-01-17T14:02:39.063Z,6.82
2023-01-17T14:05:41.426Z,7.40
2023-01-17T14:08:45.544Z,6.73
2023-01-17T14:12:06.382Z,4.70
2023-01-17T14:15:23.805Z,6.93
2023-01-17T14:18:46.472Z,4.22
2023-01-17T14:21:49.177Z,5.43
2023-01-17T14:25:20.417Z,4.60
2023-01-17T14:28:30.842Z,13.80
2023-01-17T14:31:33.501Z,9.13
2023-01-17T14:34:36.742Z,8.77
2023-01-17T14:37:48.140Z,9.07
2023-01-17T14:40:57.575Z,9.90
2023-01-17T14:44:01.085Z,7.70
2023-01-17T14:47:03.761Z,6.85
2023-01-17T14:50:18.395Z,8.75
2023-01-17T14:53:22.182Z,7.60
2023-01-17T14:56:27.458Z,5.70
2023-01-17T14:59:29.870Z,5.40
2023-01-17T15:02:32.636Z,7.07
2023-01-17T15:05:35.188Z,7.00
2023-01-17T15:08:37.738Z,9.02
2023-01-17T15:11:41.218Z,7.97
2023-01-17T15:14:46.334Z,8.83
2023-01-17T15:17:48.802Z,7.00
2023-01-17T15:20:55.898Z,12.05
2023-01-17T15:24:02.368Z,11.40
2023-01-17T15:27:06.352Z,10.60
2023-01-17T15:30:15.091Z,10.23
2023-01-17T15:33:21.107Z,8.63
2023-01-17T15:36:30.179Z,7.22
2023-01-17T15:39:39.158Z,12.00
2023-01-17T15:42:43.725Z,12.13
2023-01-17T15:45:58.262Z,12.00
2023-01-17T15:49:29.086Z,11.65
2023-01-17T15:52:31.818Z,8.73
2023-01-17T15:55:37.734Z,9.18
2023-01-17T15:58:40.232Z,12.67
2023-01-17T16:01:44.378Z,11.00
2023-01-17T16:04:47.096Z,12.52
2023-01-17T16:07:57.969Z,14.43
2023-01-17T16:11:03.262Z,7.70
2023-01-17T16:14:07.914Z,8.50
2023-01-17T16:17:17.776Z,7.67
2023-01-17T16:20:29.545Z,5.82
2023-01-17T16:23:32.079Z,5.95
2023-01-17T16:26:34.939Z,7.15
2023-01-17T16:29:37.703Z,7.63
2023-01-17T16:32:40.232Z,6.13
2023-01-17T16:35:44.146Z,27.30
2023-01-17T16:38:49.632Z,4.88
2023-01-17T16:41:59.783Z,4.10
2023-01-17T16:45:02.283Z,3.80
2023-01-17T16:51:24.946Z,6.13
2023-01-17T16:54:27.972Z,3.47
2023-01-17T16:57:30.420Z,3.67
2023-01-17T17:00:33.426Z,5.57
2023-01-17T17:03:35.910Z,5.23
2023-01-17T17:06:39.350Z,5.88
2023-01-17T17:09:42.152Z,5.13
2023-01-17T17:12:44.978Z,5.72
2023-01-17T17:15:47.546Z,3.33
2023-01-17T17:19:01.302Z,5.93
2023-01-17T17:22:06.526Z,3.22
2023-01-17T17:25:09.975Z,4.15
2023-01-17T17:28:12.465Z,3.88
2023-01-17T17:31:14.998Z,5.50
2023-01-17T17:34:17.762Z,5.50
2023-01-17T17:37:21.873Z,3.95
2023-01-17T17:40:24.411Z,4.90
2023-01-17T17:43:26.904Z,3.55
2023-01-17T17:46:30.295Z,4.23
2023-01-17T17:49:32.903Z,6.27
2023-01-17T17:52:35.313Z,7.03
2023-01-17T17:55:40.086Z,5.47
2023-01-17T17:58:43.782Z,6.28
2023-01-17T18:01:48.465Z,5.63
2023-01-17T18:04:51.523Z,6.83
2023-01-17T18:07:54.737Z,6.75
2023-01-17T18:11:00.575Z,5.60
2023-01-17T18:14:05.710Z,6.57
2023-01-17T18:17:08.291Z,6.53
2023-01-17T18:20:11.174Z,8.17
2023-01-17T18:23:13.697Z,9.18
2023-01-17T18:26:39.282Z,7.45
2023-01-17T18:29:41.904Z,7.53
2023-01-17T18:32:45.938Z,7.27
2023-01-17T18:35:59.984Z,10.00
2023-01-17T18:39:10.671Z,8.55
2023-01-17T18:42:14.277Z,5.60
2023-01-17T18:45:17.039Z,4.90
2023-01-17T18:48:19.832Z,4.43
2023-01-17T18:51:23.120Z,4.35
2023-01-17T18:54:27.912Z,5.40
2023-01-17T18:57:30.925Z,5.07
2023-01-17T19:00:33.761Z,3.70
2023-01-17T19:03:37.911Z,3.67
2023-01-17T19:06:42.979Z,3.90
2023-01-17T19:09:45.741Z,4.10
2023-01-17T19:12:48.344Z,3.13
2023-01-17T19:15:51.465Z,3.00
2023-01-17T19:18:55.521Z,3.03
2023-01-17T19:21:58.170Z,2.65
2023-01-17T19:25:01.323Z,2.30
2023-01-17T19:28:04.557Z,1.50
2023-01-17T19:31:08.478Z,1.07
2023-01-17T19:34:14.207Z,1.83
2023-01-17T19:37:16.906Z,1.40
2023-01-17T19:40:20.425Z,1.48
2023-01-17T19:43:23.335Z,2.50
2023-01-17T19:46:27.383Z,2.07
2023-01-17T19:49:32.201Z,1.75
2023-01-17T19:52:38.993Z,1.40
2023-01-17T19:55:41.592Z,1.77
2023-01-17T19:58:45.529Z,1.27
2023-01-17T20:01:49.544Z,1.10
2023-01-17T20:04:52.328Z,1.05
2023-01-17T20:07:55.824Z,2.85
2023-01-17T20:11:05.100Z,1.98
2023-01-17T20:14:09.982Z,1.00
2023-01-17T20:17:12.891Z,1.53
2023-01-17T20:20:17.252Z,2.55
2023-01-17T20:23:19.897Z,3.38
2023-01-17T20:26:25.353Z,2.08
2023-01-17T20:29:27.974Z,3.03
2023-01-17T20:32:31.079Z,3.25
2023-01-17T20:35:34.162Z,2.55
2023-01-17T20:38:45.819Z,2.25
2023-01-17T20:41:51.479Z,1.80
2023-01-17T20:44:54.007Z,2.03
2023-01-17T20:47:56.675Z,2.42
2023-01-17T20:51:10.679Z,2.67
2023-01-17T20:54:16.299Z,2.37
2023-01-17T20:57:18.759Z,1.87
2023-01-17T21:00:21.819Z,2.00
2023-01-17T21:03:28.820Z,2.45
2023-01-17T21:06:31.499Z,2.47
2023-01-17T21:09:35.165Z,2.03
2023-01-17T21:12:37.866Z,1.83
2023-01-17T21:15:44.602Z,1.20
2023-01-17T21:18:48.489Z,0.93
2023-01-17T21:21:51.533Z,1.55
2023-01-17T21:24:54.426Z,1.08
2023-01-17T21:27:57.202Z,1.67
2023-01-17T21:31:00.334Z,2.50
2023-01-17T21:34:09.074Z,1.77
2023-01-17T21:37:11.478Z,1.30
2023-01-17T21:40:14.664Z,1.75
2023-01-17T21:43:17.013Z,2.40
2023-01-17T21:46:19.452Z,1.70
2023-01-17T21:49:22.074Z,2.25
2023-01-17T21:52:24.520Z,2.58
2023-01-17T21:55:45.739Z,2.67
2023-01-17T21:58:53.723Z,2.17
2023-01-17T22:01:56.232Z,2.13
2023-01-17T22:04:58.673Z,2.72
2023-01-17T22:08:14.737Z,2.60
2023-01-17T22:11:20.393Z,2.13
2023-01-17T22:14:22.852Z,2.08
2023-01-17T22:17:25.267Z,2.20
2023-01-17T22:20:27.826Z,2.60
2023-01-17T22:23:30.867Z,1.95
2023-01-17T22:26:33.474Z,2.15
2023-01-17T22:29:38.375Z,1.63
2023-01-17T22:32:41.239Z,1.60
2023-01-17T22:35:44.120Z,1.13
2023-01-17T22:38:47.109Z,1.20
2023-01-17T22:41:49.552Z,1.30
2023-01-17T22:44:51.937Z,1.23
2023-01-17T22:47:54.388Z,1.38
2023-01-17T22:51:00.466Z,1.08
2023-01-17T22:54:04.647Z,0.97
2023-01-17T22:57:07.057Z,1.83
2023-01-17T23:00:14.639Z,1.10
2023-01-17T23:03:17.382Z,1.08
2023-01-17T23:06:23.036Z,1.33
2023-01-17T23:09:25.642Z,0.90
2023-01-17T23:12:28.056Z,1.13
2023-01-17T23:15:48.905Z,1.00
2023-01-17T23:19:10.396Z,0.80
2023-01-17T23:22:21.012Z,1.13
2023-01-17T23:25:24.013Z,1.48
2023-01-17T23:28:26.435Z,1.08
2023-01-17T23:31:28.864Z,1.75
2023-01-17T23:34:31.377Z,0.90
2023-01-17T23:37:52.829Z,1.58
2023-01-17T23:41:25.488Z,1.27
2023-01-17T23:44:31.985Z,1.23
2023-01-17T23:47:34.421Z,1.23
2023-01-17T23:50:41.556Z,2.28
2023-01-17T23:53:43.971Z,0.88
2023-01-17T23:56:46.514Z,1.05
2023-01-17T23:59:48.952Z,1.57
